sensor_id;sensor_type;location;lat;lon;timestamp;pressure;altitude;pressure_sealevel;temperature;humidity
76052;BME280;64751;48.708;9.710;2023-12-20T00:00:15;97621.34;;;3.47;100.00
76052;BME280;64751;48.708;9.710;2023-12-20T00:02:48;97613.81;;;3.50;100.00
76052;BME280;64751;48.708;9.710;2023-12-20T00:05:15;97612.00;;;3.51;100.00
76052;BME280;64751;48.708;9.710;2023-12-20T00:07:50;97616.19;;;3.52;100.00
76052;BME280;64751;48.708;9.710;2023-12-20T00:10:22;97613.59;;;3.52;100.00
76052;BME280;64751;48.708;9.710;2023-12-20T00:12:49;97599.63;;;3.58;100.00
76052;BME280;64751;48.708;9.710;2023-12-20T00:15:17;97595.97;;;3.59;100.00
76052;BME280;64751;48.708;9.710;2023-12-20T00:17:50;97592.38;;;3.60;100.00
76052;BME280;64751;48.708;9.710;2023-12-20T00:20:17;97605.19;;;3.61;100.00
76052;BME280;64751;48.708;9.710;2023-12-20T00:22:52;97603.38;;;3.62;100.00
76052;BME280;64751;48.708;9.710;2023-12-20T00:25:24;97598.16;;;3.62;100.00
76052;BME280;64751;48.708;9.710;2023-12-20T00:27:56;97593.47;;;3.64;100.00
76052;BME280;64751;48.708;9.710;2023-12-20T00:30:24;97590.44;;;3.67;100.00
76052;BME280;64751;48.708;9.710;2023-12-20T00:32:51;97585.75;;;3.69;100.00
76052;BME280;64751;48.708;9.710;2023-12-20T00:35:24;97563.94;;;3.75;100.00
76052;BME280;64751;48.708;9.710;2023-12-20T00:37:58;97560.75;;;3.73;100.00
76052;BME280;64751;48.708;9.710;2023-12-20T00:40:31;97553.97;;;3.72;100.00
76052;BME280;64751;48.708;9.710;2023-12-20T00:42:59;97547.94;;;3.72;100.00
76052;BME280;64751;48.708;9.710;2023-12-20T00:45:31;97546.91;;;3.73;100.00
76052;BME280;64751;48.708;9.710;2023-12-20T00:47:59;97543.28;;;3.74;100.00
76052;BME280;64751;48.708;9.710;2023-12-20T00:50:31;97538.06;;;3.74;100.00
76052;BME280;64751;48.708;9.710;2023-12-20T00:52:59;97540.19;;;3.77;100.00
76052;BME280;64751;48.708;9.710;2023-12-20T00:55:32;97541.00;;;3.77;100.00
76052;BME280;64751;48.708;9.710;2023-12-20T00:58:00;97543.03;;;3.75;100.00
76052;BME280;64751;48.708;9.710;2023-12-20T01:00:27;97547.25;;;3.76;100.00
76052;BME280;64751;48.708;9.710;2023-12-20T01:02:55;97547.47;;;3.75;100.00
76052;BME280;64751;48.708;9.710;2023-12-20T01:05:22;97542.25;;;3.75;100.00
76052;BME280;64751;48.708;9.710;2023-12-20T01:07:55;97547.72;;;3.73;100.00
76052;BME280;64751;48.708;9.710;2023-12-20T01:10:28;97551.81;;;3.69;100.00
76052;BME280;64751;48.708;9.710;2023-12-20T01:12:56;97543.44;;;3.67;100.00
76052;BME280;64751;48.708;9.710;2023-12-20T01:15:23;97550.22;;;3.68;100.00
76052;BME280;64751;48.708;9.710;2023-12-20T01:17:56;97547.59;;;3.68;100.00
76052;BME280;64751;48.708;9.710;2023-12-20T01:20:30;97542.88;;;3.65;100.00
76052;BME280;64751;48.708;9.710;2023-12-20T01:23:03;97540.72;;;3.62;100.00
76052;BME280;64751;48.708;9.710;2023-12-20T01:25:37;97543.31;;;3.62;100.00
76052;BME280;64751;48.708;9.710;2023-12-20T01:28:09;97545.38;;;3.60;100.00
76052;BME280;64751;48.708;9.710;2023-12-20T01:30:37;97548.22;;;3.58;100.00
76052;BME280;64751;48.708;9.710;2023-12-20T01:33:10;97557.88;;;3.58;100.00
76052;BME280;64751;48.708;9.710;2023-12-20T01:35:37;97550.94;;;3.52;100.00
76052;BME280;64751;48.708;9.710;2023-12-20T01:38:09;97572.41;;;3.54;100.00
76052;BME280;64751;48.708;9.710;2023-12-20T01:40:43;97564.78;;;3.52;100.00
76052;BME280;64751;48.708;9.710;2023-12-20T01:43:11;97568.44;;;3.51;100.00
76052;BME280;64751;48.708;9.710;2023-12-20T01:45:43;97574.91;;;3.49;100.00
76052;BME280;64751;48.708;9.710;2023-12-20T01:48:16;97573.78;;;3.45;100.00
76052;BME280;64751;48.708;9.710;2023-12-20T01:50:45;97575.59;;;3.44;100.00
76052;BME280;64751;48.708;9.710;2023-12-20T01:53:12;97584.69;;;3.42;100.00
76052;BME280;64751;48.708;9.710;2023-12-20T01:55:41;97587.28;;;3.42;100.00
76052;BME280;64751;48.708;9.710;2023-12-20T01:58:16;97594.88;;;3.43;100.00
76052;BME280;64751;48.708;9.710;2023-12-20T02:00:49;97594.09;;;3.43;100.00
76052;BME280;64751;48.708;9.710;2023-12-20T02:03:18;97576.28;;;3.40;100.00
76052;BME280;64751;48.708;9.710;2023-12-20T02:05:51;97578.78;;;3.46;100.00
76052;BME280;64751;48.708;9.710;2023-12-20T02:08:20;97577.16;;;3.45;100.00
76052;BME280;64751;48.708;9.710;2023-12-20T02:10:47;97574.34;;;3.47;100.00
76052;BME280;64751;48.708;9.710;2023-12-20T02:13:22;97585.81;;;3.46;100.00
76052;BME280;64751;48.708;9.710;2023-12-20T02:15:54;97579.00;;;3.45;100.00
76052;BME280;64751;48.708;9.710;2023-12-20T02:18:27;97586.59;;;3.46;100.00
76052;BME280;64751;48.708;9.710;2023-12-20T02:20:59;97581.13;;;3.48;100.00
76052;BME280;64751;48.708;9.710;2023-12-20T02:23:33;97572.53;;;3.47;100.00
76052;BME280;64751;48.708;9.710;2023-12-20T02:26:05;97572.53;;;3.47;100.00
76052;BME280;64751;48.708;9.710;2023-12-20T02:28:34;97572.31;;;3.49;100.00
76052;BME280;64751;48.708;9.710;2023-12-20T02:31:01;97565.47;;;3.48;100.00
76052;BME280;64751;48.708;9.710;2023-12-20T02:33:29;97565.47;;;3.48;100.00
76052;BME280;64751;48.708;9.710;2023-12-20T02:35:56;97562.41;;;3.51;100.00
76052;BME280;64751;48.708;9.710;2023-12-20T02:38:28;97567.19;;;3.54;100.00
76052;BME280;64751;48.708;9.710;2023-12-20T02:41:04;97576.34;;;3.56;100.00
76052;BME280;64751;48.708;9.710;2023-12-20T02:43:37;97569.88;;;3.59;100.00
76052;BME280;64751;48.708;9.710;2023-12-20T02:46:09;97567.50;;;3.57;100.00
76052;BME280;64751;48.708;9.710;2023-12-20T02:48:41;97568.31;;;3.58;100.00
76052;BME280;64751;48.708;9.710;2023-12-20T02:51:14;97571.72;;;3.58;100.00
76052;BME280;64751;48.708;9.710;2023-12-20T02:53:46;97566.72;;;3.57;100.00
76052;BME280;64751;48.708;9.710;2023-12-20T02:56:20;97568.53;;;3.56;100.00
76052;BME280;64751;48.708;9.710;2023-12-20T02:58:52;97566.72;;;3.57;100.00
76052;BME280;64751;48.708;9.710;2023-12-20T03:01:24;97573.53;;;3.58;100.00
76052;BME280;64751;48.708;9.710;2023-12-20T03:03:56;97566.16;;;3.55;100.00
76052;BME280;64751;48.708;9.710;2023-12-20T03:06:29;97567.97;;;3.54;100.00
76052;BME280;64751;48.708;9.710;2023-12-20T03:08:56;97571.38;;;3.55;100.00
76052;BME280;64751;48.708;9.710;2023-12-20T03:11:27;97571.38;;;3.55;100.00
76052;BME280;64751;48.708;9.710;2023-12-20T03:14:00;97571.38;;;3.55;100.00
76052;BME280;64751;48.708;9.710;2023-12-20T03:16:27;97570.56;;;3.54;100.00
76052;BME280;64751;48.708;9.710;2023-12-20T03:18:54;97571.38;;;3.55;100.00
76052;BME280;64751;48.708;9.710;2023-12-20T03:21:27;97576.59;;;3.55;100.00
76052;BME280;64751;48.708;9.710;2023-12-20T03:23:59;97586.03;;;3.56;100.00
76052;BME280;64751;48.708;9.710;2023-12-20T03:26:33;97590.44;;;3.55;100.00
76052;BME280;64751;48.708;9.710;2023-12-20T03:29:05;97580.00;;;3.55;100.00
76052;BME280;64751;48.708;9.710;2023-12-20T03:31:37;97581.38;;;3.58;100.00
76052;BME280;64751;48.708;9.710;2023-12-20T03:34:10;97582.38;;;3.57;100.00
76052;BME280;64751;48.708;9.710;2023-12-20T03:36:37;97584.53;;;3.60;100.00
76052;BME280;64751;48.708;9.710;2023-12-20T03:39:04;97600.75;;;3.62;100.00
76052;BME280;64751;48.708;9.710;2023-12-20T03:41:33;97585.09;;;3.62;100.00
76052;BME280;64751;48.708;9.710;2023-12-20T03:44:01;97584.28;;;3.61;100.00
76052;BME280;64751;48.708;9.710;2023-12-20T03:46:28;97597.34;;;3.61;100.00
76052;BME280;64751;48.708;9.710;2023-12-20T03:49:00;97592.13;;;3.61;100.00
76052;BME280;64751;48.708;9.710;2023-12-20T03:51:28;97594.72;;;3.61;100.00
76052;BME280;64751;48.708;9.710;2023-12-20T03:54:00;97591.13;;;3.62;100.00
76052;BME280;64751;48.708;9.710;2023-12-20T03:56:27;97596.34;;;3.62;100.00
76052;BME280;64751;48.708;9.710;2023-12-20T03:58:56;97591.13;;;3.62;100.00
76052;BME280;64751;48.708;9.710;2023-12-20T04:01:28;97594.53;;;3.63;100.00
76052;BME280;64751;48.708;9.710;2023-12-20T04:04:01;97593.47;;;3.64;100.00
76052;BME280;64751;48.708;9.710;2023-12-20T04:06:33;97599.97;;;3.61;100.00
76052;BME280;64751;48.708;9.710;2023-12-20T04:09:05;97608.03;;;3.60;100.00
76052;BME280;64751;48.708;9.710;2023-12-20T04:11:35;97601.22;;;3.59;100.00
76052;BME280;64751;48.708;9.710;2023-12-20T04:14:09;97606.53;;;3.64;100.00
76052;BME280;64751;48.708;9.710;2023-12-20T04:16:42;97609.16;;;3.64;100.00
76052;BME280;64751;48.708;9.710;2023-12-20T04:19:14;97605.97;;;3.62;100.00
76052;BME280;64751;48.708;9.710;2023-12-20T04:21:41;97607.78;;;3.61;100.00
76052;BME280;64751;48.708;9.710;2023-12-20T04:24:14;97608.34;;;3.63;100.00
76052;BME280;64751;48.708;9.710;2023-12-20T04:26:46;97619.03;;;3.62;100.00
76052;BME280;64751;48.708;9.710;2023-12-20T04:29:20;97614.38;;;3.64;100.00
76052;BME280;64751;48.708;9.710;2023-12-20T04:31:52;97615.97;;;3.65;100.00
76052;BME280;64751;48.708;9.710;2023-12-20T04:34:24;97614.72;;;3.67;100.00
76052;BME280;64751;48.708;9.710;2023-12-20T04:36:57;97621.75;;;3.67;100.00
76052;BME280;64751;48.708;9.710;2023-12-20T04:39:24;97621.97;;;3.65;100.00
76052;BME280;64751;48.708;9.710;2023-12-20T04:41:56;97628.00;;;3.66;100.00
76052;BME280;64751;48.708;9.710;2023-12-20T04:44:25;97630.03;;;3.64;100.00
76052;BME280;64751;48.708;9.710;2023-12-20T04:46:57;97625.06;;;3.62;100.00
76052;BME280;64751;48.708;9.710;2023-12-20T04:49:30;97629.25;;;3.63;100.00
76052;BME280;64751;48.708;9.710;2023-12-20T04:51:57;97636.31;;;3.63;100.00
76052;BME280;64751;48.708;9.710;2023-12-20T04:54:24;97628.47;;;3.63;100.00
76052;BME280;64751;48.708;9.710;2023-12-20T04:56:57;97632.09;;;3.62;100.00
76052;BME280;64751;48.708;9.710;2023-12-20T04:59:25;97628.69;;;3.61;100.00
76052;BME280;64751;48.708;9.710;2023-12-20T05:01:58;97633.09;;;3.61;100.00
76052;BME280;64751;48.708;9.710;2023-12-20T05:04:25;97638.31;;;3.61;100.00
76052;BME280;64751;48.708;9.710;2023-12-20T05:06:57;97643.78;;;3.59;100.00
76052;BME280;64751;48.708;9.710;2023-12-20T05:09:25;97654.22;;;3.59;100.00
76052;BME280;64751;48.708;9.710;2023-12-20T05:11:57;97653.44;;;3.59;100.00
76052;BME280;64751;48.708;9.710;2023-12-20T05:14:26;97650.81;;;3.59;100.00
76052;BME280;64751;48.708;9.710;2023-12-20T05:16:53;97655.25;;;3.58;100.00
76052;BME280;64751;48.708;9.710;2023-12-20T05:19:21;97645.38;;;3.60;100.00
76052;BME280;64751;48.708;9.710;2023-12-20T05:21:48;97652.19;;;3.61;100.00
76052;BME280;64751;48.708;9.710;2023-12-20T05:24:20;97668.66;;;3.62;100.00
76052;BME280;64751;48.708;9.710;2023-12-20T05:26:48;97660.25;;;3.60;100.00
76052;BME280;64751;48.708;9.710;2023-12-20T05:29:20;97668.66;;;3.62;100.00
76052;BME280;64751;48.708;9.710;2023-12-20T05:31:54;97666.59;;;3.64;100.00
76052;BME280;64751;48.708;9.710;2023-12-20T05:34:21;97652.84;;;3.57;100.00
76052;BME280;64751;48.708;9.710;2023-12-20T05:36:53;97666.84;;;3.62;100.00
76052;BME280;64751;48.708;9.710;2023-12-20T05:39:26;97674.09;;;3.60;100.00
76052;BME280;64751;48.708;9.710;2023-12-20T05:41:53;97680.34;;;3.59;100.00
76052;BME280;64751;48.708;9.710;2023-12-20T05:44:25;97683.75;;;3.60;100.00
76052;BME280;64751;48.708;9.710;2023-12-20T05:46:59;97685.00;;;3.57;100.00
76052;BME280;64751;48.708;9.710;2023-12-20T05:49:27;97692.38;;;3.60;100.00
76052;BME280;64751;48.708;9.710;2023-12-20T05:51:54;97691.56;;;3.60;100.00
76052;BME280;64751;48.708;9.710;2023-12-20T05:54:21;97687.94;;;3.61;100.00
76052;BME280;64751;48.708;9.710;2023-12-20T05:56:54;97693.16;;;3.61;100.00
76052;BME280;64751;48.708;9.710;2023-12-20T05:59:26;97694.19;;;3.60;100.00
76052;BME280;64751;48.708;9.710;2023-12-20T06:02:00;97704.63;;;3.60;100.00
76052;BME280;64751;48.708;9.710;2023-12-20T06:04:27;97705.63;;;3.59;100.00
76052;BME280;64751;48.708;9.710;2023-12-20T06:07:00;97716.09;;;3.59;100.00
76052;BME280;64751;48.708;9.710;2023-12-20T06:09:32;97716.09;;;3.59;100.00
76052;BME280;64751;48.708;9.710;2023-12-20T06:12:00;97716.88;;;3.59;100.00
76052;BME280;64751;48.708;9.710;2023-12-20T06:14:32;97718.94;;;3.57;100.00
76052;BME280;64751;48.708;9.710;2023-12-20T06:17:02;97716.31;;;3.57;100.00
76052;BME280;64751;48.708;9.710;2023-12-20T06:19:34;97728.56;;;3.57;100.00
76052;BME280;64751;48.708;9.710;2023-12-20T06:22:02;97728.38;;;3.58;100.00
76052;BME280;64751;48.708;9.710;2023-12-20T06:24:36;97722.53;;;3.56;100.00
76052;BME280;64751;48.708;9.710;2023-12-20T06:27:03;97720.19;;;3.55;100.00
76052;BME280;64751;48.708;9.710;2023-12-20T06:29:36;97727.19;;;3.54;100.00
76052;BME280;64751;48.708;9.710;2023-12-20T06:32:06;97728.81;;;3.55;100.00
76052;BME280;64751;48.708;9.710;2023-12-20T06:34:34;97728.81;;;3.55;100.00
76052;BME280;64751;48.708;9.710;2023-12-20T06:37:06;97736.63;;;3.55;100.00
76052;BME280;64751;48.708;9.710;2023-12-20T06:39:34;97736.63;;;3.55;100.00
76052;BME280;64751;48.708;9.710;2023-12-20T06:42:03;97729.81;;;3.54;100.00
76052;BME280;64751;48.708;9.710;2023-12-20T06:44:35;97735.84;;;3.55;100.00
76052;BME280;64751;48.708;9.710;2023-12-20T06:47:05;97734.25;;;3.54;100.00
76052;BME280;64751;48.708;9.710;2023-12-20T06:49:37;97735.84;;;3.55;100.00
76052;BME280;64751;48.708;9.710;2023-12-20T06:52:10;97733.78;;;3.57;100.00
76052;BME280;64751;48.708;9.710;2023-12-20T06:54:43;97735.84;;;3.55;100.00
76052;BME280;64751;48.708;9.710;2023-12-20T06:57:15;97746.28;;;3.55;100.00
76052;BME280;64751;48.708;9.710;2023-12-20T06:59:47;97740.50;;;3.53;100.00
76052;BME280;64751;48.708;9.710;2023-12-20T07:02:16;97741.28;;;3.53;100.00
76052;BME280;64751;48.708;9.710;2023-12-20T07:04:49;97745.72;;;3.53;100.00
76052;BME280;64751;48.708;9.710;2023-12-20T07:07:21;97756.72;;;3.55;100.00
76052;BME280;64751;48.708;9.710;2023-12-20T07:09:55;97756.72;;;3.55;100.00
76052;BME280;64751;48.708;9.710;2023-12-20T07:12:22;97767.16;;;3.55;100.00
76052;BME280;64751;48.708;9.710;2023-12-20T07:14:55;97774.00;;;3.56;100.00
76052;BME280;64751;48.708;9.710;2023-12-20T07:17:28;97768.78;;;3.56;100.00
76052;BME280;64751;48.708;9.710;2023-12-20T07:19:57;97770.69;;;3.49;100.00
76052;BME280;64751;48.708;9.710;2023-12-20T07:22:29;97774.00;;;3.56;100.00
76052;BME280;64751;48.708;9.710;2023-12-20T07:24:57;97784.63;;;3.54;100.00
76052;BME280;64751;48.708;9.710;2023-12-20T07:27:24;97785.44;;;3.55;100.00
76052;BME280;64751;48.708;9.710;2023-12-20T07:29:56;97779.22;;;3.56;100.00
76052;BME280;64751;48.708;9.710;2023-12-20T07:32:30;97789.66;;;3.56;100.00
76052;BME280;64751;48.708;9.710;2023-12-20T07:34:58;97784.44;;;3.56;100.00
76052;BME280;64751;48.708;9.710;2023-12-20T07:37:30;97771.69;;;3.48;100.00
76052;BME280;64751;48.708;9.710;2023-12-20T07:40:02;97788.06;;;3.55;100.00
76052;BME280;64751;48.708;9.710;2023-12-20T07:42:35;97801.66;;;3.57;100.00
76052;BME280;64751;48.708;9.710;2023-12-20T07:45:08;97803.47;;;3.56;100.00
76052;BME280;64751;48.708;9.710;2023-12-20T07:47:38;97790.66;;;3.55;100.00
76052;BME280;64751;48.708;9.710;2023-12-20T07:50:07;97792.25;;;3.56;100.00
76052;BME280;64751;48.708;9.710;2023-12-20T07:52:34;97794.06;;;3.55;100.00
76052;BME280;64751;48.708;9.710;2023-12-20T07:55:07;97796.44;;;3.57;100.00
76052;BME280;64751;48.708;9.710;2023-12-20T07:57:35;97794.66;;;3.57;100.00
76052;BME280;64751;48.708;9.710;2023-12-20T08:00:08;97793.63;;;3.58;100.00
76052;BME280;64751;48.708;9.710;2023-12-20T08:02:42;97804.84;;;3.59;100.00
76052;BME280;64751;48.708;9.710;2023-12-20T08:05:14;97801.47;;;3.58;100.00
76052;BME280;64751;48.708;9.710;2023-12-20T08:07:42;97807.25;;;3.60;100.00
76052;BME280;64751;48.708;9.710;2023-12-20T08:10:14;97811.69;;;3.60;100.00
76052;BME280;64751;48.708;9.710;2023-12-20T08:12:41;97805.41;;;3.61;100.00
76052;BME280;64751;48.708;9.710;2023-12-20T08:15:10;97809.63;;;3.62;100.00
76052;BME280;64751;48.708;9.710;2023-12-20T08:17:43;97814.84;;;3.62;100.00
76052;BME280;64751;48.708;9.710;2023-12-20T08:20:11;97810.19;;;3.64;100.00
76052;BME280;64751;48.708;9.710;2023-12-20T08:22:43;97823.25;;;3.64;100.00
76052;BME280;64751;48.708;9.710;2023-12-20T08:25:15;97827.47;;;3.65;100.00
76052;BME280;64751;48.708;9.710;2023-12-20T08:27:48;97839.28;;;3.67;100.00
76052;BME280;64751;48.708;9.710;2023-12-20T08:30:15;97838.00;;;3.70;100.00
76052;BME280;64751;48.708;9.710;2023-12-20T08:32:53;97828.94;;;3.73;100.00
76052;BME280;64751;48.708;9.710;2023-12-20T08:35:20;97823.72;;;3.73;100.00
76052;BME280;64751;48.708;9.710;2023-12-20T08:37:47;97829.50;;;3.75;100.00
76052;BME280;64751;48.708;9.710;2023-12-20T08:40:15;97843.38;;;3.75;100.00
76052;BME280;64751;48.708;9.710;2023-12-20T08:42:47;97841.56;;;3.76;100.00
76052;BME280;64751;48.708;9.710;2023-12-20T08:45:15;97838.16;;;3.75;100.00
76052;BME280;64751;48.708;9.710;2023-12-20T08:47:47;97841.31;;;3.77;100.00
76052;BME280;64751;48.708;9.710;2023-12-20T08:50:21;97841.31;;;3.77;100.00
76052;BME280;64751;48.708;9.710;2023-12-20T08:52:53;97844.28;;;3.81;100.00
76052;BME280;64751;48.708;9.710;2023-12-20T08:55:25;97840.44;;;3.83;100.00
76052;BME280;64751;48.708;9.710;2023-12-20T08:57:55;97850.22;;;3.88;100.00
76052;BME280;64751;48.708;9.710;2023-12-20T09:00:22;97850.53;;;3.91;100.00
76052;BME280;64751;48.708;9.710;2023-12-20T09:02:50;97850.78;;;3.90;100.00
76052;BME280;64751;48.708;9.710;2023-12-20T09:05:17;97856.69;;;3.85;100.00
76052;BME280;64751;48.708;9.710;2023-12-20T09:07:51;97849.06;;;3.84;100.00
76052;BME280;64751;48.708;9.710;2023-12-20T09:10:23;97854.50;;;3.82;100.00
76052;BME280;64751;48.708;9.710;2023-12-20T09:12:56;97847.47;;;3.83;100.00
76052;BME280;64751;48.708;9.710;2023-12-20T09:15:28;97850.28;;;3.81;100.00
76052;BME280;64751;48.708;9.710;2023-12-20T09:18:01;97853.50;;;3.83;100.00
76052;BME280;64751;48.708;9.710;2023-12-20T09:20:35;97855.06;;;3.84;100.00
76052;BME280;64751;48.708;9.710;2023-12-20T09:23:09;97850.66;;;3.85;100.00
76052;BME280;64751;48.708;9.710;2023-12-20T09:25:41;97858.63;;;3.90;100.00
76052;BME280;64751;48.708;9.710;2023-12-20T09:28:13;97863.16;;;3.94;100.00
76052;BME280;64751;48.708;9.710;2023-12-20T09:30:41;97856.69;;;3.97;100.00
76052;BME280;64751;48.708;9.710;2023-12-20T09:33:15;97858.03;;;3.99;100.00
76052;BME280;64751;48.708;9.710;2023-12-20T09:35:48;97850.44;;;3.98;100.00
76052;BME280;64751;48.708;9.710;2023-12-20T09:38:17;97853.28;;;3.96;100.00
76052;BME280;64751;48.708;9.710;2023-12-20T09:40:44;97856.91;;;3.95;100.00
76052;BME280;64751;48.708;9.710;2023-12-20T09:43:14;97860.00;;;3.92;100.00
76052;BME280;64751;48.708;9.710;2023-12-20T09:45:47;97865.88;;;3.88;100.00
76052;BME280;64751;48.708;9.710;2023-12-20T09:48:20;97859.88;;;3.87;100.00
76052;BME280;64751;48.708;9.710;2023-12-20T09:50:53;97867.22;;;3.90;100.00
76052;BME280;64751;48.708;9.710;2023-12-20T09:53:22;97873.81;;;3.93;100.00
76052;BME280;64751;48.708;9.710;2023-12-20T09:56:00;97870.19;;;3.94;100.00
76052;BME280;64751;48.708;9.710;2023-12-20T09:58:27;97875.19;;;3.95;100.00
76052;BME280;64751;48.708;9.710;2023-12-20T10:00:55;97863.25;;;3.99;100.00
76052;BME280;64751;48.708;9.710;2023-12-20T10:03:24;97869.28;;;4.00;100.00
76052;BME280;64751;48.708;9.710;2023-12-20T10:05:57;97865.00;;;4.05;100.00
76052;BME280;64751;48.708;9.710;2023-12-20T10:08:28;97868.16;;;4.07;100.00
76052;BME280;64751;48.708;9.710;2023-12-20T10:11:01;97864.31;;;4.10;100.00
76052;BME280;64751;48.708;9.710;2023-12-20T10:13:39;97851.94;;;4.05;100.00
76052;BME280;64751;48.708;9.710;2023-12-20T10:16:06;97858.28;;;4.09;100.00
76052;BME280;64751;48.708;9.710;2023-12-20T10:18:34;97858.28;;;4.09;100.00
76052;BME280;64751;48.708;9.710;2023-12-20T10:21:07;97860.34;;;4.07;100.00
76052;BME280;64751;48.708;9.710;2023-12-20T10:23:42;97863.84;;;4.13;100.00
76052;BME280;64751;48.708;9.710;2023-12-20T10:26:09;97861.03;;;4.14;100.00
76052;BME280;64751;48.708;9.710;2023-12-20T10:28:38;97853.38;;;4.13;100.00
76052;BME280;64751;48.708;9.710;2023-12-20T10:31:06;97855.44;;;4.11;100.00
76052;BME280;64751;48.708;9.710;2023-12-20T10:33:34;97851.56;;;4.13;100.00
76052;BME280;64751;48.708;9.710;2023-12-20T10:36:06;97848.97;;;4.13;100.00
76052;BME280;64751;48.708;9.710;2023-12-20T10:38:35;97852.03;;;4.10;100.00
76052;BME280;64751;48.708;9.710;2023-12-20T10:41:07;97843.06;;;4.06;100.00
76052;BME280;64751;48.708;9.710;2023-12-20T10:43:40;97846.13;;;4.03;100.00
76052;BME280;64751;48.708;9.710;2023-12-20T10:46:08;97838.75;;;4.00;100.00
76052;BME280;64751;48.708;9.710;2023-12-20T10:48:41;97848.06;;;3.96;100.00
76052;BME280;64751;48.708;9.710;2023-12-20T10:51:17;97850.88;;;3.95;100.00
76052;BME280;64751;48.708;9.710;2023-12-20T10:53:47;97839.19;;;3.97;100.00
76052;BME280;64751;48.708;9.710;2023-12-20T10:56:17;97839.88;;;4.04;100.00
76052;BME280;64751;48.708;9.710;2023-12-20T10:58:46;97835.00;;;4.08;100.00
76052;BME280;64751;48.708;9.710;2023-12-20T11:01:19;97838.28;;;4.15;100.00
76052;BME280;64751;48.708;9.710;2023-12-20T11:03:53;97831.34;;;4.20;100.00
76052;BME280;64751;48.708;9.710;2023-12-20T11:06:27;97835.09;;;4.24;100.00
76052;BME280;64751;48.708;9.710;2023-12-20T11:09:10;97835.66;;;4.26;100.00
76052;BME280;64751;48.708;9.710;2023-12-20T11:11:56;97836.47;;;4.27;100.00
76052;BME280;64751;48.708;9.710;2023-12-20T11:14:31;97837.47;;;4.26;100.00
76052;BME280;64751;48.708;9.710;2023-12-20T11:17:06;97834.84;;;4.26;100.00
76052;BME280;64751;48.708;9.710;2023-12-20T11:19:36;97829.19;;;4.29;100.00
76052;BME280;64751;48.708;9.710;2023-12-20T11:22:04;97837.94;;;4.34;100.00
76052;BME280;64751;48.708;9.710;2023-12-20T11:24:44;97819.72;;;4.39;100.00
76052;BME280;64751;48.708;9.710;2023-12-20T11:27:14;97819.41;;;4.48;100.00
76052;BME280;64751;48.708;9.710;2023-12-20T11:29:41;97822.81;;;4.48;100.00
76052;BME280;64751;48.708;9.710;2023-12-20T11:32:30;97820.31;;;4.42;99.17
76052;BME280;64751;48.708;9.710;2023-12-20T11:34:58;97821.78;;;4.37;98.48
76052;BME280;64751;48.708;9.710;2023-12-20T11:37:35;97821.69;;;4.32;99.79
76052;BME280;64751;48.708;9.710;2023-12-20T11:40:11;97818.59;;;4.35;99.32
76052;BME280;64751;48.708;9.710;2023-12-20T11:42:43;97819.97;;;4.38;100.00
76052;BME280;64751;48.708;9.710;2023-12-20T11:45:13;97811.69;;;4.41;99.00
76052;BME280;64751;48.708;9.710;2023-12-20T11:47:42;97808.25;;;4.40;100.00
76052;BME280;64751;48.708;9.710;2023-12-20T11:50:16;97809.63;;;4.43;100.00
76052;BME280;64751;48.708;9.710;2023-12-20T11:52:49;97807.81;;;4.44;100.00
76052;BME280;64751;48.708;9.710;2023-12-20T11:55:23;97810.63;;;4.42;99.17
76052;BME280;64751;48.708;9.710;2023-12-20T11:57:57;97808.03;;;4.42;98.73
76052;BME280;64751;48.708;9.710;2023-12-20T12:00:29;97817.13;;;4.39;98.51
76052;BME280;64751;48.708;9.710;2023-12-20T12:02:57;97803.72;;;4.36;98.24
76052;BME280;64751;48.708;9.710;2023-12-20T12:05:31;97798.94;;;4.33;99.23
76052;BME280;64751;48.708;9.710;2023-12-20T12:07:58;97806.56;;;4.34;98.74
76052;BME280;64751;48.708;9.710;2023-12-20T12:10:26;97802.91;;;4.35;98.73
76052;BME280;64751;48.708;9.710;2023-12-20T12:12:53;97801.09;;;4.36;99.69
76052;BME280;64751;48.708;9.710;2023-12-20T12:15:22;97791.91;;;4.33;98.85
76052;BME280;64751;48.708;9.710;2023-12-20T12:17:55;97791.91;;;4.33;98.73
76052;BME280;64751;48.708;9.710;2023-12-20T12:20:28;97799.41;;;4.30;99.15
76052;BME280;64751;48.708;9.710;2023-12-20T12:22:59;97802.72;;;4.25;99.56
76052;BME280;64751;48.708;9.710;2023-12-20T12:25:34;97805.78;;;4.22;99.75
76052;BME280;64751;48.708;9.710;2023-12-20T12:28:07;97795.78;;;4.19;100.00
76052;BME280;64751;48.708;9.710;2023-12-20T12:30:36;97797.25;;;4.15;100.00
76052;BME280;64751;48.708;9.710;2023-12-20T12:33:08;97790.34;;;4.09;100.00
76052;BME280;64751;48.708;9.710;2023-12-20T12:35:36;97792.16;;;4.09;100.00
76052;BME280;64751;48.708;9.710;2023-12-20T12:38:04;97791.59;;;4.07;100.00
76052;BME280;64751;48.708;9.710;2023-12-20T12:40:36;97791.84;;;4.05;100.00
76052;BME280;64751;48.708;9.710;2023-12-20T12:43:08;97793.28;;;4.01;100.00
76052;BME280;64751;48.708;9.710;2023-12-20T12:45:37;97792.50;;;4.01;100.00
76052;BME280;64751;48.708;9.710;2023-12-20T12:48:10;97795.13;;;4.01;100.00
76052;BME280;64751;48.708;9.710;2023-12-20T12:50:42;97795.34;;;3.99;100.00
76052;BME280;64751;48.708;9.710;2023-12-20T12:53:09;97789.53;;;3.97;100.00
76052;BME280;64751;48.708;9.710;2023-12-20T12:55:42;97801.03;;;3.96;100.00
76052;BME280;64751;48.708;9.710;2023-12-20T12:58:14;97806.25;;;3.96;100.00
76052;BME280;64751;48.708;9.710;2023-12-20T13:00:43;97798.19;;;3.98;100.00
76052;BME280;64751;48.708;9.710;2023-12-20T13:03:15;97797.38;;;3.97;100.00
76052;BME280;64751;48.708;9.710;2023-12-20T13:05:48;97787.50;;;3.99;100.00
76052;BME280;64751;48.708;9.710;2023-12-20T13:08:16;97789.09;;;4.00;100.00
76052;BME280;64751;48.708;9.710;2023-12-20T13:10:43;97785.69;;;4.00;100.00
76052;BME280;64751;48.708;9.710;2023-12-20T13:13:15;97777.28;;;3.98;100.00
76052;BME280;64751;48.708;9.710;2023-12-20T13:15:49;97780.47;;;4.00;99.87
76052;BME280;64751;48.708;9.710;2023-12-20T13:18:21;97773.19;;;4.02;100.00